sensor_id;sensor_type;location;lat;lon;timestamp;P1;durP1;ratioP1;P2;durP2;ratioP2
81353;SDS011;70810;52.038;8.524;2023-09-18T00:01:44;21.83;;;13.50;;
81353;SDS011;70810;52.038;8.524;2023-09-18T00:04:12;26.80;;;17.90;;
81353;SDS011;70810;52.038;8.524;2023-09-18T00:06:38;35.13;;;20.00;;
81353;SDS011;70810;52.038;8.524;2023-09-18T00:09:05;21.33;;;14.10;;
81353;SDS011;70810;52.038;8.524;2023-09-18T00:11:36;33.40;;;18.30;;
81353;SDS011;70810;52.038;8.524;2023-09-18T00:14:03;19.00;;;14.10;;
81353;SDS011;70810;52.038;8.524;2023-09-18T00:16:30;18.90;;;13.67;;
81353;SDS011;70810;52.038;8.524;2023-09-18T00:18:57;21.03;;;14.20;;
81353;SDS011;70810;52.038;8.524;2023-09-18T00:21:25;25.73;;;19.83;;
81353;SDS011;70810;52.038;8.524;2023-09-18T00:23:55;21.13;;;14.50;;
81353;SDS011;70810;52.038;8.524;2023-09-18T00:26:24;23.50;;;16.17;;
81353;SDS011;70810;52.038;8.524;2023-09-18T00:28:51;32.80;;;14.13;;
81353;SDS011;70810;52.038;8.524;2023-09-18T00:31:18;21.00;;;15.07;;
81353;SDS011;70810;52.038;8.524;2023-09-18T00:33:46;25.87;;;20.57;;
81353;SDS011;70810;52.038;8.524;2023-09-18T00:36:13;22.80;;;14.47;;
81353;SDS011;70810;52.038;8.524;2023-09-18T00:38:41;20.70;;;15.50;;
81353;SDS011;70810;52.038;8.524;2023-09-18T00:41:12;29.93;;;20.90;;
81353;SDS011;70810;52.038;8.524;2023-09-18T00:43:39;38.57;;;23.37;;
81353;SDS011;70810;52.038;8.524;2023-09-18T00:46:06;41.23;;;29.17;;
81353;SDS011;70810;52.038;8.524;2023-09-18T00:48:35;36.70;;;27.93;;
81353;SDS011;70810;52.038;8.524;2023-09-18T00:51:03;39.37;;;30.73;;
81353;SDS011;70810;52.038;8.524;2023-09-18T00:53:31;32.60;;;22.20;;
81353;SDS011;70810;52.038;8.524;2023-09-18T00:56:02;45.47;;;32.87;;
81353;SDS011;70810;52.038;8.524;2023-09-18T00:58:31;31.67;;;21.87;;
81353;SDS011;70810;52.038;8.524;2023-09-18T01:00:59;26.67;;;16.80;;
81353;SDS011;70810;52.038;8.524;2023-09-18T01:03:26;46.20;;;35.10;;
81353;SDS011;70810;52.038;8.524;2023-09-18T01:05:53;28.87;;;20.13;;
81353;SDS011;70810;52.038;8.524;2023-09-18T01:08:20;29.13;;;21.63;;
81353;SDS011;70810;52.038;8.524;2023-09-18T01:10:52;28.53;;;17.20;;
81353;SDS011;70810;52.038;8.524;2023-09-18T01:13:34;20.53;;;13.90;;
81353;SDS011;70810;52.038;8.524;2023-09-18T01:16:06;22.93;;;18.47;;
81353;SDS011;70810;52.038;8.524;2023-09-18T01:18:48;22.70;;;15.50;;
81353;SDS011;70810;52.038;8.524;2023-09-18T01:21:16;25.53;;;17.57;;
81353;SDS011;70810;52.038;8.524;2023-09-18T01:23:49;37.03;;;24.40;;
81353;SDS011;70810;52.038;8.524;2023-09-18T01:26:16;30.30;;;20.30;;
81353;SDS011;70810;52.038;8.524;2023-09-18T01:28:43;30.77;;;20.90;;
81353;SDS011;70810;52.038;8.524;2023-09-18T01:31:09;31.77;;;17.13;;
81353;SDS011;70810;52.038;8.524;2023-09-18T01:33:37;29.83;;;15.33;;
81353;SDS011;70810;52.038;8.524;2023-09-18T01:36:06;28.23;;;15.20;;
81353;SDS011;70810;52.038;8.524;2023-09-18T01:38:36;31.60;;;17.17;;
81353;SDS011;70810;52.038;8.524;2023-09-18T01:41:04;21.23;;;15.70;;
81353;SDS011;70810;52.038;8.524;2023-09-18T01:43:31;28.93;;;17.20;;
81353;SDS011;70810;52.038;8.524;2023-09-18T01:45:58;27.50;;;19.83;;
81353;SDS011;70810;52.038;8.524;2023-09-18T01:48:24;29.30;;;22.23;;
81353;SDS011;70810;52.038;8.524;2023-09-18T01:50:52;36.63;;;22.80;;
81353;SDS011;70810;52.038;8.524;2023-09-18T01:53:20;29.93;;;21.57;;
81353;SDS011;70810;52.038;8.524;2023-09-18T01:55:46;29.20;;;19.67;;
81353;SDS011;70810;52.038;8.524;2023-09-18T01:58:15;23.37;;;17.10;;
81353;SDS011;70810;52.038;8.524;2023-09-18T02:00:42;28.83;;;16.80;;
81353;SDS011;70810;52.038;8.524;2023-09-18T02:03:08;30.87;;;20.67;;
81353;SDS011;70810;52.038;8.524;2023-09-18T02:05:36;31.53;;;20.47;;
81353;SDS011;70810;52.038;8.524;2023-09-18T02:08:03;36.07;;;18.33;;
81353;SDS011;70810;52.038;8.524;2023-09-18T02:10:30;34.87;;;20.47;;
81353;SDS011;70810;52.038;8.524;2023-09-18T02:12:58;28.30;;;17.60;;
81353;SDS011;70810;52.038;8.524;2023-09-18T02:15:30;25.33;;;19.77;;
81353;SDS011;70810;52.038;8.524;2023-09-18T02:17:57;37.93;;;23.33;;
81353;SDS011;70810;52.038;8.524;2023-09-18T02:20:24;26.53;;;17.30;;
81353;SDS011;70810;52.038;8.524;2023-09-18T02:22:52;25.30;;;18.13;;
81353;SDS011;70810;52.038;8.524;2023-09-18T02:25:18;30.43;;;21.23;;
81353;SDS011;70810;52.038;8.524;2023-09-18T02:27:45;63.07;;;48.77;;
81353;SDS011;70810;52.038;8.524;2023-09-18T02:30:12;80.70;;;66.83;;
81353;SDS011;70810;52.038;8.524;2023-09-18T02:32:43;58.90;;;48.40;;
81353;SDS011;70810;52.038;8.524;2023-09-18T02:35:09;133.13;;;117.27;;
81353;SDS011;70810;52.038;8.524;2023-09-18T02:37:39;84.57;;;68.83;;
81353;SDS011;70810;52.038;8.524;2023-09-18T02:40:09;54.97;;;37.87;;
81353;SDS011;70810;52.038;8.524;2023-09-18T02:42:36;59.47;;;43.67;;
81353;SDS011;70810;52.038;8.524;2023-09-18T02:45:03;50.93;;;33.23;;
81353;SDS011;70810;52.038;8.524;2023-09-18T02:47:33;42.40;;;34.70;;
81353;SDS011;70810;52.038;8.524;2023-09-18T02:50:12;55.67;;;41.87;;
81353;SDS011;70810;52.038;8.524;2023-09-18T02:52:46;36.50;;;30.90;;
81353;SDS011;70810;52.038;8.524;2023-09-18T02:55:13;22.33;;;16.23;;
81353;SDS011;70810;52.038;8.524;2023-09-18T02:57:43;54.47;;;36.13;;
81353;SDS011;70810;52.038;8.524;2023-09-18T03:00:13;25.17;;;15.80;;
81353;SDS011;70810;52.038;8.524;2023-09-18T03:02:52;31.10;;;20.60;;
81353;SDS011;70810;52.038;8.524;2023-09-18T03:05:22;24.00;;;12.17;;
81353;SDS011;70810;52.038;8.524;2023-09-18T03:07:51;22.97;;;14.20;;
81353;SDS011;70810;52.038;8.524;2023-09-18T03:10:26;27.83;;;12.50;;
81353;SDS011;70810;52.038;8.524;2023-09-18T03:13:21;21.67;;;12.73;;
81353;SDS011;70810;52.038;8.524;2023-09-18T03:15:48;25.00;;;15.40;;
81353;SDS011;70810;52.038;8.524;2023-09-18T03:18:14;30.50;;;19.10;;
81353;SDS011;70810;52.038;8.524;2023-09-18T03:20:42;31.70;;;12.90;;
81353;SDS011;70810;52.038;8.524;2023-09-18T03:23:09;24.90;;;12.30;;
81353;SDS011;70810;52.038;8.524;2023-09-18T03:25:36;25.47;;;11.87;;
81353;SDS011;70810;52.038;8.524;2023-09-18T03:28:04;20.67;;;14.53;;
81353;SDS011;70810;52.038;8.524;2023-09-18T03:30:31;26.70;;;10.53;;
81353;SDS011;70810;52.038;8.524;2023-09-18T03:32:58;20.63;;;10.83;;
81353;SDS011;70810;52.038;8.524;2023-09-18T03:35:24;21.03;;;10.57;;
81353;SDS011;70810;52.038;8.524;2023-09-18T03:37:52;12.43;;;9.47;;
81353;SDS011;70810;52.038;8.524;2023-09-18T03:40:23;17.23;;;9.37;;
81353;SDS011;70810;52.038;8.524;2023-09-18T03:42:49;19.27;;;10.17;;
81353;SDS011;70810;52.038;8.524;2023-09-18T03:45:16;15.00;;;10.10;;
81353;SDS011;70810;52.038;8.524;2023-09-18T03:47:44;23.10;;;9.80;;
81353;SDS011;70810;52.038;8.524;2023-09-18T03:50:16;14.40;;;9.47;;
81353;SDS011;70810;52.038;8.524;2023-09-18T03:52:53;21.10;;;9.63;;
81353;SDS011;70810;52.038;8.524;2023-09-18T03:55:20;25.63;;;10.00;;
81353;SDS011;70810;52.038;8.524;2023-09-18T03:57:47;24.40;;;9.97;;
81353;SDS011;70810;52.038;8.524;2023-09-18T04:00:14;23.13;;;10.70;;
81353;SDS011;70810;52.038;8.524;2023-09-18T04:02:42;18.57;;;8.80;;
81353;SDS011;70810;52.038;8.524;2023-09-18T04:05:09;20.90;;;8.40;;
81353;SDS011;70810;52.038;8.524;2023-09-18T04:07:36;14.33;;;7.83;;
81353;SDS011;70810;52.038;8.524;2023-09-18T04:10:07;30.87;;;19.20;;
81353;SDS011;70810;52.038;8.524;2023-09-18T04:12:50;28.10;;;11.60;;
81353;SDS011;70810;52.038;8.524;2023-09-18T04:15:18;26.87;;;13.10;;
81353;SDS011;70810;52.038;8.524;2023-09-18T04:17:46;23.27;;;11.10;;
81353;SDS011;70810;52.038;8.524;2023-09-18T04:20:13;23.10;;;9.80;;
81353;SDS011;70810;52.038;8.524;2023-09-18T04:22:42;16.23;;;11.30;;
81353;SDS011;70810;52.038;8.524;2023-09-18T04:25:11;18.13;;;9.20;;
81353;SDS011;70810;52.038;8.524;2023-09-18T04:27:39;21.23;;;9.07;;
81353;SDS011;70810;52.038;8.524;2023-09-18T04:30:06;20.00;;;8.57;;
81353;SDS011;70810;52.038;8.524;2023-09-18T04:32:36;17.57;;;9.07;;
81353;SDS011;70810;52.038;8.524;2023-09-18T04:35:09;23.83;;;9.13;;
81353;SDS011;70810;52.038;8.524;2023-09-18T04:37:37;19.00;;;10.80;;
81353;SDS011;70810;52.038;8.524;2023-09-18T04:40:05;12.70;;;6.70;;
81353;SDS011;70810;52.038;8.524;2023-09-18T04:42:36;18.87;;;7.63;;
81353;SDS011;70810;52.038;8.524;2023-09-18T04:45:04;23.87;;;8.33;;
81353;SDS011;70810;52.038;8.524;2023-09-18T04:47:31;15.87;;;8.40;;
81353;SDS011;70810;52.038;8.524;2023-09-18T04:49:59;12.20;;;7.43;;
81353;SDS011;70810;52.038;8.524;2023-09-18T04:52:35;19.70;;;7.60;;
81353;SDS011;70810;52.038;8.524;2023-09-18T04:55:03;13.23;;;7.80;;
81353;SDS011;70810;52.038;8.524;2023-09-18T04:57:31;18.93;;;7.90;;
81353;SDS011;70810;52.038;8.524;2023-09-18T04:59:59;12.30;;;7.07;;
81353;SDS011;70810;52.038;8.524;2023-09-18T05:02:27;23.83;;;12.10;;
81353;SDS011;70810;52.038;8.524;2023-09-18T05:04:55;15.10;;;8.80;;
81353;SDS011;70810;52.038;8.524;2023-09-18T05:07:22;18.33;;;11.27;;
81353;SDS011;70810;52.038;8.524;2023-09-18T05:09:48;27.47;;;9.70;;
81353;SDS011;70810;52.038;8.524;2023-09-18T05:12:15;20.93;;;11.13;;
81353;SDS011;70810;52.038;8.524;2023-09-18T05:14:42;19.90;;;8.10;;
81353;SDS011;70810;52.038;8.524;2023-09-18T05:17:14;22.67;;;8.93;;
81353;SDS011;70810;52.038;8.524;2023-09-18T05:19:42;25.30;;;8.07;;
81353;SDS011;70810;52.038;8.524;2023-09-18T05:22:10;19.03;;;9.27;;
81353;SDS011;70810;52.038;8.524;2023-09-18T05:24:37;25.33;;;9.03;;
81353;SDS011;70810;52.038;8.524;2023-09-18T05:27:15;16.37;;;7.70;;
81353;SDS011;70810;52.038;8.524;2023-09-18T05:29:42;20.30;;;9.07;;
81353;SDS011;70810;52.038;8.524;2023-09-18T05:32:08;20.97;;;8.57;;
81353;SDS011;70810;52.038;8.524;2023-09-18T05:34:37;22.80;;;8.93;;
81353;SDS011;70810;52.038;8.524;2023-09-18T05:37:04;22.53;;;8.97;;
81353;SDS011;70810;52.038;8.524;2023-09-18T05:39:51;19.73;;;10.70;;
81353;SDS011;70810;52.038;8.524;2023-09-18T05:42:48;33.80;;;11.63;;
81353;SDS011;70810;52.038;8.524;2023-09-18T05:45:16;18.10;;;9.50;;
81353;SDS011;70810;52.038;8.524;2023-09-18T05:47:51;24.30;;;10.50;;
81353;SDS011;70810;52.038;8.524;2023-09-18T05:50:37;9.83;;;7.23;;
81353;SDS011;70810;52.038;8.524;2023-09-18T05:53:06;21.37;;;11.67;;
81353;SDS011;70810;52.038;8.524;2023-09-18T05:55:35;21.43;;;7.97;;
81353;SDS011;70810;52.038;8.524;2023-09-18T05:58:06;16.43;;;8.30;;
81353;SDS011;70810;52.038;8.524;2023-09-18T06:00:38;22.37;;;10.47;;
81353;SDS011;70810;52.038;8.524;2023-09-18T06:03:20;17.50;;;8.10;;
81353;SDS011;70810;52.038;8.524;2023-09-18T06:05:49;67.20;;;43.20;;
81353;SDS011;70810;52.038;8.524;2023-09-18T06:08:18;35.13;;;13.70;;
81353;SDS011;70810;52.038;8.524;2023-09-18T06:10:46;42.03;;;25.33;;
81353;SDS011;70810;52.038;8.524;2023-09-18T06:13:14;18.27;;;10.43;;
81353;SDS011;70810;52.038;8.524;2023-09-18T06:15:42;26.93;;;13.63;;
81353;SDS011;70810;52.038;8.524;2023-09-18T06:18:09;22.60;;;9.40;;
81353;SDS011;70810;52.038;8.524;2023-09-18T06:20:38;18.33;;;9.17;;
81353;SDS011;70810;52.038;8.524;2023-09-18T06:23:06;29.60;;;10.13;;
81353;SDS011;70810;52.038;8.524;2023-09-18T06:25:34;26.67;;;8.60;;
81353;SDS011;70810;52.038;8.524;2023-09-18T06:28:10;18.23;;;8.77;;
81353;SDS011;70810;52.038;8.524;2023-09-18T06:30:37;17.90;;;12.87;;
81353;SDS011;70810;52.038;8.524;2023-09-18T06:33:05;11.33;;;8.73;;
81353;SDS011;70810;52.038;8.524;2023-09-18T06:35:41;28.93;;;9.00;;
81353;SDS011;70810;52.038;8.524;2023-09-18T06:38:09;37.30;;;16.00;;
81353;SDS011;70810;52.038;8.524;2023-09-18T06:40:41;15.40;;;9.27;;
81353;SDS011;70810;52.038;8.524;2023-09-18T06:43:08;20.97;;;8.33;;
81353;SDS011;70810;52.038;8.524;2023-09-18T06:45:36;33.87;;;19.10;;
81353;SDS011;70810;52.038;8.524;2023-09-18T06:48:05;33.43;;;21.60;;
81353;SDS011;70810;52.038;8.524;2023-09-18T06:50:33;13.60;;;7.10;;
81353;SDS011;70810;52.038;8.524;2023-09-18T06:53:13;22.17;;;10.00;;
81353;SDS011;70810;52.038;8.524;2023-09-18T06:55:56;15.60;;;8.67;;
81353;SDS011;70810;52.038;8.524;2023-09-18T06:58:22;17.83;;;7.70;;
81353;SDS011;70810;52.038;8.524;2023-09-18T07:00:50;21.40;;;10.23;;
81353;SDS011;70810;52.038;8.524;2023-09-18T07:03:19;20.57;;;12.67;;
81353;SDS011;70810;52.038;8.524;2023-09-18T07:05:46;19.90;;;11.00;;
81353;SDS011;70810;52.038;8.524;2023-09-18T07:08:16;21.43;;;10.67;;
81353;SDS011;70810;52.038;8.524;2023-09-18T07:10:49;18.93;;;8.03;;
81353;SDS011;70810;52.038;8.524;2023-09-18T07:13:18;23.63;;;9.40;;
81353;SDS011;70810;52.038;8.524;2023-09-18T07:15:45;30.63;;;16.70;;
81353;SDS011;70810;52.038;8.524;2023-09-18T07:18:14;25.27;;;14.50;;
81353;SDS011;70810;52.038;8.524;2023-09-18T07:20:43;20.77;;;10.53;;
81353;SDS011;70810;52.038;8.524;2023-09-18T07:23:11;25.67;;;10.73;;
81353;SDS011;70810;52.038;8.524;2023-09-18T07:25:43;28.07;;;10.60;;
81353;SDS011;70810;52.038;8.524;2023-09-18T07:28:14;11.70;;;8.67;;
81353;SDS011;70810;52.038;8.524;2023-09-18T07:30:43;21.00;;;8.50;;
81353;SDS011;70810;52.038;8.524;2023-09-18T07:33:12;14.07;;;8.97;;
81353;SDS011;70810;52.038;8.524;2023-09-18T07:35:46;16.80;;;7.50;;
81353;SDS011;70810;52.038;8.524;2023-09-18T07:38:17;22.13;;;11.87;;
81353;SDS011;70810;52.038;8.524;2023-09-18T07:47:15;29.07;;;15.17;;
81353;SDS011;70810;52.038;8.524;2023-09-18T07:49:42;29.57;;;10.40;;
81353;SDS011;70810;52.038;8.524;2023-09-18T07:52:09;22.70;;;8.87;;
81353;SDS011;70810;52.038;8.524;2023-09-18T07:54:35;22.70;;;9.80;;
81353;SDS011;70810;52.038;8.524;2023-09-18T07:57:04;27.00;;;9.07;;
81353;SDS011;70810;52.038;8.524;2023-09-18T07:59:36;23.27;;;9.53;;
81353;SDS011;70810;52.038;8.524;2023-09-18T08:02:12;17.43;;;7.10;;
81353;SDS011;70810;52.038;8.524;2023-09-18T08:04:41;19.47;;;6.23;;
81353;SDS011;70810;52.038;8.524;2023-09-18T08:07:10;22.83;;;6.80;;
81353;SDS011;70810;52.038;8.524;2023-09-18T08:09:40;25.40;;;7.97;;
81353;SDS011;70810;52.038;8.524;2023-09-18T08:12:20;19.97;;;6.90;;
81353;SDS011;70810;52.038;8.524;2023-09-18T08:15:05;32.17;;;10.50;;
81353;SDS011;70810;52.038;8.524;2023-09-18T08:17:51;26.17;;;12.43;;
81353;SDS011;70810;52.038;8.524;2023-09-18T08:23:07;36.33;;;13.50;;
81353;SDS011;70810;52.038;8.524;2023-09-18T08:25:36;38.93;;;13.90;;
81353;SDS011;70810;52.038;8.524;2023-09-18T08:28:03;29.20;;;17.53;;
81353;SDS011;70810;52.038;8.524;2023-09-18T08:30:31;31.03;;;11.30;;
81353;SDS011;70810;52.038;8.524;2023-09-18T08:33:00;25.23;;;9.00;;
81353;SDS011;70810;52.038;8.524;2023-09-18T08:35:27;20.13;;;6.10;;
81353;SDS011;70810;52.038;8.524;2023-09-18T08:37:56;20.67;;;8.20;;
81353;SDS011;70810;52.038;8.524;2023-09-18T08:40:24;23.07;;;7.30;;
81353;SDS011;70810;52.038;8.524;2023-09-18T08:42:51;35.90;;;8.23;;
81353;SDS011;70810;52.038;8.524;2023-09-18T08:45:25;17.73;;;5.33;;
81353;SDS011;70810;52.038;8.524;2023-09-18T08:47:58;21.27;;;8.00;;
81353;SDS011;70810;52.038;8.524;2023-09-18T08:50:33;32.50;;;15.37;;
81353;SDS011;70810;52.038;8.524;2023-09-18T08:53:16;28.67;;;9.17;;
81353;SDS011;70810;52.038;8.524;2023-09-18T08:55:59;25.27;;;8.10;;
81353;SDS011;70810;52.038;8.524;2023-09-18T08:58:40;22.33;;;7.13;;
81353;SDS011;70810;52.038;8.524;2023-09-18T09:01:13;23.13;;;9.73;;
81353;SDS011;70810;52.038;8.524;2023-09-18T09:03:42;22.57;;;6.80;;
81353;SDS011;70810;52.038;8.524;2023-09-18T09:06:11;24.77;;;11.70;;
81353;SDS011;70810;52.038;8.524;2023-09-18T09:08:40;29.63;;;8.33;;
81353;SDS011;70810;52.038;8.524;2023-09-18T09:11:14;25.47;;;8.87;;
81353;SDS011;70810;52.038;8.524;2023-09-18T09:14:08;21.57;;;8.43;;
81353;SDS011;70810;52.038;8.524;2023-09-18T09:16:54;12.73;;;5.77;;
81353;SDS011;70810;52.038;8.524;2023-09-18T09:19:30;22.43;;;9.40;;
81353;SDS011;70810;52.038;8.524;2023-09-18T09:22:08;33.13;;;8.40;;
81353;SDS011;70810;52.038;8.524;2023-09-18T09:28:04;34.17;;;8.73;;
81353;SDS011;70810;52.038;8.524;2023-09-18T09:30:46;35.57;;;7.47;;
81353;SDS011;70810;52.038;8.524;2023-09-18T09:33:24;20.10;;;5.23;;
81353;SDS011;70810;52.038;8.524;2023-09-18T09:35:59;22.73;;;9.80;;
81353;SDS011;70810;52.038;8.524;2023-09-18T09:38:42;21.97;;;7.47;;
81353;SDS011;70810;52.038;8.524;2023-09-18T09:41:17;19.77;;;5.53;;
81353;SDS011;70810;52.038;8.524;2023-09-18T09:43:44;21.67;;;6.93;;
81353;SDS011;70810;52.038;8.524;2023-09-18T09:46:15;25.03;;;7.20;;
81353;SDS011;70810;52.038;8.524;2023-09-18T09:49:02;19.60;;;6.07;;
81353;SDS011;70810;52.038;8.524;2023-09-18T09:51:46;13.70;;;4.03;;
81353;SDS011;70810;52.038;8.524;2023-09-18T09:54:18;25.33;;;8.93;;
81353;SDS011;70810;52.038;8.524;2023-09-18T09:57:03;22.73;;;6.87;;
81353;SDS011;70810;52.038;8.524;2023-09-18T09:59:30;25.77;;;8.80;;
81353;SDS011;70810;52.038;8.524;2023-09-18T10:02:12;21.93;;;8.60;;
81353;SDS011;70810;52.038;8.524;2023-09-18T10:04:46;22.07;;;5.47;;
81353;SDS011;70810;52.038;8.524;2023-09-18T10:07:16;30.53;;;7.30;;
81353;SDS011;70810;52.038;8.524;2023-09-18T10:09:45;13.57;;;3.77;;
81353;SDS011;70810;52.038;8.524;2023-09-18T10:12:19;12.67;;;5.17;;
81353;SDS011;70810;52.038;8.524;2023-09-18T10:14:47;17.83;;;7.40;;
81353;SDS011;70810;52.038;8.524;2023-09-18T10:17:19;20.87;;;5.17;;
81353;SDS011;70810;52.038;8.524;2023-09-18T10:19:51;31.47;;;10.03;;
81353;SDS011;70810;52.038;8.524;2023-09-18T10:22:59;22.93;;;7.90;;
81353;SDS011;70810;52.038;8.524;2023-09-18T10:26:09;17.70;;;6.80;;
81353;SDS011;70810;52.038;8.524;2023-09-18T10:28:42;17.37;;;5.63;;
81353;SDS011;70810;52.038;8.524;2023-09-18T10:31:10;26.60;;;6.30;;
81353;SDS011;70810;52.038;8.524;2023-09-18T10:33:47;34.70;;;7.80;;
81353;SDS011;70810;52.038;8.524;2023-09-18T10:36:20;24.87;;;6.70;;
81353;SDS011;70810;52.038;8.524;2023-09-18T10:38:48;24.03;;;8.80;;
81353;SDS011;70810;52.038;8.524;2023-09-18T10:41:35;19.63;;;7.40;;
81353;SDS011;70810;52.038;8.524;2023-09-18T10:44:14;22.67;;;7.47;;
81353;SDS011;70810;52.038;8.524;2023-09-18T10:46:46;19.53;;;8.70;;
81353;SDS011;70810;52.038;8.524;2023-09-18T10:49:18;36.10;;;7.73;;
81353;SDS011;70810;52.038;8.524;2023-09-18T10:51:48;14.20;;;6.13;;
81353;SDS011;70810;52.038;8.524;2023-09-18T10:54:28;25.07;;;7.70;;
81353;SDS011;70810;52.038;8.524;2023-09-18T10:56:57;17.63;;;5.50;;
81353;SDS011;70810;52.038;8.524;2023-09-18T10:59:28;23.17;;;8.37;;
81353;SDS011;70810;52.038;8.524;2023-09-18T11:02:02;16.13;;;5.93;;
81353;SDS011;70810;52.038;8.524;2023-09-18T11:04:31;28.63;;;8.03;;
81353;SDS011;70810;52.038;8.524;2023-09-18T11:07:02;15.77;;;4.07;;
81353;SDS011;70810;52.038;8.524;2023-09-18T11:09:42;15.07;;;5.10;;
81353;SDS011;70810;52.038;8.524;2023-09-18T11:12:20;15.83;;;4.97;;
81353;SDS011;70810;52.038;8.524;2023-09-18T11:18:35;23.37;;;5.80;;
81353;SDS011;70810;52.038;8.524;2023-09-18T11:21:09;21.43;;;6.27;;
81353;SDS011;70810;52.038;8.524;2023-09-18T11:23:40;28.93;;;7.00;;
81353;SDS011;70810;52.038;8.524;2023-09-18T11:26:19;25.40;;;6.93;;
81353;SDS011;70810;52.038;8.524;2023-09-18T11:29:24;36.17;;;6.90;;
81353;SDS011;70810;52.038;8.524;2023-09-18T11:32:08;24.83;;;6.57;;
81353;SDS011;70810;52.038;8.524;2023-09-18T11:34:42;18.50;;;6.80;;
81353;SDS011;70810;52.038;8.524;2023-09-18T11:37:19;27.07;;;10.60;;
81353;SDS011;70810;52.038;8.524;2023-09-18T11:40:07;22.93;;;6.23;;
81353;SDS011;70810;52.038;8.524;2023-09-18T11:43:32;14.67;;;6.40;;
81353;SDS011;70810;52.038;8.524;2023-09-18T11:46:10;13.63;;;4.97;;
81353;SDS011;70810;52.038;8.524;2023-09-18T11:48:38;18.63;;;6.13;;
81353;SDS011;70810;52.038;8.524;2023-09-18T11:51:08;30.53;;;7.07;;
81353;SDS011;70810;52.038;8.524;2023-09-18T11:53:38;27.27;;;5.03;;
81353;SDS011;70810;52.038;8.524;2023-09-18T11:56:10;21.20;;;5.57;;
81353;SDS011;70810;52.038;8.524;2023-09-18T11:58:51;13.00;;;4.47;;
81353;SDS011;70810;52.038;8.524;2023-09-18T12:01:35;23.37;;;4.70;;
81353;SDS011;70810;52.038;8.524;2023-09-18T12:04:05;20.63;;;6.97;;
81353;SDS011;70810;52.038;8.524;2023-09-18T12:06:34;19.10;;;8.93;;
81353;SDS011;70810;52.038;8.524;2023-09-18T12:09:02;15.20;;;7.57;;
81353;SDS011;70810;52.038;8.524;2023-09-18T12:11:33;23.13;;;7.50;;
81353;SDS011;70810;52.038;8.524;2023-09-18T12:14:08;34.73;;;13.77;;
81353;SDS011;70810;52.038;8.524;2023-09-18T12:17:04;30.43;;;13.30;;
81353;SDS011;70810;52.038;8.524;2023-09-18T12:19:35;12.30;;;5.70;;
81353;SDS011;70810;52.038;8.524;2023-09-18T12:22:07;29.33;;;10.50;;
81353;SDS011;70810;52.038;8.524;2023-09-18T12:24:38;17.23;;;6.90;;
81353;SDS011;70810;52.038;8.524;2023-09-18T12:27:10;19.00;;;6.07;;
81353;SDS011;70810;52.038;8.524;2023-09-18T12:29:55;20.13;;;7.53;;
81353;SDS011;70810;52.038;8.524;2023-09-18T12:32:36;26.87;;;15.13;;
81353;SDS011;70810;52.038;8.524;2023-09-18T12:38:17;24.30;;;12.00;;
81353;SDS011;70810;52.038;8.524;2023-09-18T12:41:17;39.97;;;12.83;;
81353;SDS011;70810;52.038;8.524;2023-09-18T12:43:48;27.63;;;7.30;;
81353;SDS011;70810;52.038;8.524;2023-09-18T12:46:32;19.70;;;4.53;;
81353;SDS011;70810;52.038;8.524;2023-09-18T12:49:16;16.20;;;3.80;;
81353;SDS011;70810;52.038;8.524;2023-09-18T12:51:56;19.30;;;4.63;;
81353;SDS011;70810;52.038;8.524;2023-09-18T12:54:36;31.17;;;11.00;;
81353;SDS011;70810;52.038;8.524;2023-09-18T12:57:25;25.43;;;10.47;;
81353;SDS011;70810;52.038;8.524;2023-09-18T12:59:54;20.13;;;5.90;;
81353;SDS011;70810;52.038;8.524;2023-09-18T13:02:54;25.23;;;5.77;;
81353;SDS011;70810;52.038;8.524;2023-09-18T13:05:32;20.57;;;7.70;;
81353;SDS011;70810;52.038;8.524;2023-09-18T13:08:08;23.13;;;5.57;;
81353;SDS011;70810;52.038;8.524;2023-09-18T13:10:46;30.90;;;8.50;;
81353;SDS011;70810;52.038;8.524;2023-09-18T13:13:17;23.23;;;6.80;;
81353;SDS011;70810;52.038;8.524;2023-09-18T13:15:57;15.67;;;4.67;;
81353;SDS011;70810;52.038;8.524;2023-09-18T13:21:33;27.67;;;9.20;;
81353;SDS011;70810;52.038;8.524;2023-09-18T13:24:23;20.27;;;6.33;;
81353;SDS011;70810;52.038;8.524;2023-09-18T13:26:57;21.23;;;5.77;;
81353;SDS011;70810;52.038;8.524;2023-09-18T13:29:25;19.10;;;5.97;;
81353;SDS011;70810;52.038;8.524;2023-09-18T13:31:56;26.33;;;5.37;;
81353;SDS011;70810;52.038;8.524;2023-09-18T13:34:33;27.37;;;6.13;;
81353;SDS011;70810;52.038;8.524;2023-09-18T13:37:02;18.17;;;10.40;;
81353;SDS011;70810;52.038;8.524;2023-09-18T13:39:31;31.10;;;6.47;;
81353;SDS011;70810;52.038;8.524;2023-09-18T13:42:00;22.00;;;4.63;;
81353;SDS011;70810;52.038;8.524;2023-09-18T13:44:27;17.40;;;5.80;;
81353;SDS011;70810;52.038;8.524;2023-09-18T13:46:58;24.87;;;6.37;;
81353;SDS011;70810;52.038;8.524;2023-09-18T13:49:30;29.33;;;11.53;;
81353;SDS011;70810;52.038;8.524;2023-09-18T13:52:01;16.33;;;6.40;;
81353;SDS011;70810;52.038;8.524;2023-09-18T13:54:31;22.47;;;5.57;;
81353;SDS011;70810;52.038;8.524;2023-09-18T13:56:59;30.40;;;6.60;;
81353;SDS011;70810;52.038;8.524;2023-09-18T13:59:30;23.23;;;5.30;;
81353;SDS011;70810;52.038;8.524;2023-09-18T14:01:57;27.33;;;13.30;;
81353;SDS011;70810;52.038;8.524;2023-09-18T14:04:26;26.30;;;11.00;;
81353;SDS011;70810;52.038;8.524;2023-09-18T14:06:57;14.70;;;6.20;;
81353;SDS011;70810;52.038;8.524;2023-09-18T14:09:34;29.30;;;10.13;;
81353;SDS011;70810;52.038;8.524;2023-09-18T14:12:04;23.30;;;8.13;;
81353;SDS011;70810;52.038;8.524;2023-09-18T14:14:35;32.83;;;5.03;;
81353;SDS011;70810;52.038;8.524;2023-09-18T14:17:06;31.10;;;7.10;;
81353;SDS011;70810;52.038;8.524;2023-09-18T14:19:34;18.83;;;5.00;;
81353;SDS011;70810;52.038;8.524;2023-09-18T14:22:05;14.93;;;4.37;;
81353;SDS011;70810;52.038;8.524;2023-09-18T14:27:33;41.40;;;11.63;;
81353;SDS011;70810;52.038;8.524;2023-09-18T14:30:05;30.00;;;5.90;;
81353;SDS011;70810;52.038;8.524;2023-09-18T14:32:36;42.60;;;13.27;;
81353;SDS011;70810;52.038;8.524;2023-09-18T14:35:04;15.93;;;7.30;;
81353;SDS011;70810;52.038;8.524;2023-09-18T14:37:52;21.53;;;9.10;;
81353;SDS011;70810;52.038;8.524;2023-09-18T14:40:23;29.57;;;11.63;;
81353;SDS011;70810;52.038;8.524;2023-09-18T14:42:50;36.53;;;16.23;;
81353;SDS011;70810;52.038;8.524;2023-09-18T14:45:20;32.43;;;7.60;;
81353;SDS011;70810;52.038;8.524;2023-09-18T14:48:29;36.23;;;11.87;;
81353;SDS011;70810;52.038;8.524;2023-09-18T14:51:18;28.67;;;7.73;;
81353;SDS011;70810;52.038;8.524;2023-09-18T14:53:59;31.03;;;11.80;;
81353;SDS011;70810;52.038;8.524;2023-09-18T14:56:36;28.80;;;11.67;;
81353;SDS011;70810;52.038;8.524;2023-09-18T14:59:21;20.60;;;7.07;;
81353;SDS011;70810;52.038;8.524;2023-09-18T15:01:54;23.17;;;7.47;;
81353;SDS011;70810;52.038;8.524;2023-09-18T15:04:26;22.33;;;5.70;;
81353;SDS011;70810;52.038;8.524;2023-09-18T15:07:01;24.07;;;6.83;;
81353;SDS011;70810;52.038;8.524;2023-09-18T15:09:37;25.53;;;6.93;;
81353;SDS011;70810;52.038;8.524;2023-09-18T15:12:07;31.17;;;18.40;;
81353;SDS011;70810;52.038;8.524;2023-09-18T15:14:37;30.27;;;16.23;;
81353;SDS011;70810;52.038;8.524;2023-09-18T15:17:05;29.57;;;10.10;;
81353;SDS011;70810;52.038;8.524;2023-09-18T15:19:33;33.27;;;14.30;;
81353;SDS011;70810;52.038;8.524;2023-09-18T15:22:16;25.23;;;6.17;;
81353;SDS011;70810;52.038;8.524;2023-09-18T15:25:07;15.43;;;7.10;;